sensor_id;sensor_type;location;lat;lon;timestamp;temperature;humidity
54846;DHT22;53889;50.084;8.646;2023-03-14T00:01:55;10.50;99.90
54846;DHT22;53889;50.084;8.646;2023-03-14T00:04:22;10.50;99.90
54846;DHT22;53889;50.084;8.646;2023-03-14T00:06:49;10.50;99.90
54846;DHT22;53889;50.084;8.646;2023-03-14T00:09:15;10.50;99.90
54846;DHT22;53889;50.084;8.646;2023-03-14T00:11:42;10.50;99.90
54846;DHT22;53889;50.084;8.646;2023-03-14T00:14:09;10.50;99.90
54846;DHT22;53889;50.084;8.646;2023-03-14T00:16:38;10.50;99.90
54846;DHT22;53889;50.084;8.646;2023-03-14T00:19:05;10.50;99.90
54846;DHT22;53889;50.084;8.646;2023-03-14T00:21:32;10.50;99.90
54846;DHT22;53889;50.084;8.646;2023-03-14T00:23:58;10.50;99.90
54846;DHT22;53889;50.084;8.646;2023-03-14T00:26:25;11.20;99.90
54846;DHT22;53889;50.084;8.646;2023-03-14T00:28:52;10.70;99.90
54846;DHT22;53889;50.084;8.646;2023-03-14T00:31:19;10.50;99.90
54846;DHT22;53889;50.084;8.646;2023-03-14T00:33:47;10.50;99.90
54846;DHT22;53889;50.084;8.646;2023-03-14T00:36:16;10.50;99.90
54846;DHT22;53889;50.084;8.646;2023-03-14T00:38:45;10.50;99.90
54846;DHT22;53889;50.084;8.646;2023-03-14T00:41:14;10.40;99.90
54846;DHT22;53889;50.084;8.646;2023-03-14T00:43:41;10.50;99.90
54846;DHT22;53889;50.084;8.646;2023-03-14T00:46:08;10.40;99.90
54846;DHT22;53889;50.084;8.646;2023-03-14T00:48:35;10.40;99.90
54846;DHT22;53889;50.084;8.646;2023-03-14T00:51:05;10.40;99.90
54846;DHT22;53889;50.084;8.646;2023-03-14T00:53:35;10.40;99.90
54846;DHT22;53889;50.084;8.646;2023-03-14T00:56:03;10.50;99.90
54846;DHT22;53889;50.084;8.646;2023-03-14T00:58:30;10.50;99.90
54846;DHT22;53889;50.084;8.646;2023-03-14T01:00:56;10.50;99.90
54846;DHT22;53889;50.084;8.646;2023-03-14T01:03:24;10.50;99.90
54846;DHT22;53889;50.084;8.646;2023-03-14T01:05:51;10.60;99.90
54846;DHT22;53889;50.084;8.646;2023-03-14T01:08:19;10.50;99.90
54846;DHT22;53889;50.084;8.646;2023-03-14T01:10:45;10.50;99.90
54846;DHT22;53889;50.084;8.646;2023-03-14T01:13:12;10.50;99.90
54846;DHT22;53889;50.084;8.646;2023-03-14T01:15:39;10.50;99.90
54846;DHT22;53889;50.084;8.646;2023-03-14T01:18:05;10.50;99.90
54846;DHT22;53889;50.084;8.646;2023-03-14T01:20:32;10.60;99.90
54846;DHT22;53889;50.084;8.646;2023-03-14T01:22:59;10.60;99.90
54846;DHT22;53889;50.084;8.646;2023-03-14T01:25:27;10.60;99.90
54846;DHT22;53889;50.084;8.646;2023-03-14T01:27:54;10.60;99.90
54846;DHT22;53889;50.084;8.646;2023-03-14T01:30:21;10.60;99.90
54846;DHT22;53889;50.084;8.646;2023-03-14T01:32:48;10.60;99.90
54846;DHT22;53889;50.084;8.646;2023-03-14T01:35:14;10.60;99.90
54846;DHT22;53889;50.084;8.646;2023-03-14T01:37:41;10.60;99.90
54846;DHT22;53889;50.084;8.646;2023-03-14T01:40:13;10.60;99.90
54846;DHT22;53889;50.084;8.646;2023-03-14T01:42:46;10.60;99.90
54846;DHT22;53889;50.084;8.646;2023-03-14T01:48:13;10.60;99.90
54846;DHT22;53889;50.084;8.646;2023-03-14T01:50:40;10.60;99.90
54846;DHT22;53889;50.084;8.646;2023-03-14T01:53:07;10.70;99.90
54846;DHT22;53889;50.084;8.646;2023-03-14T01:55:34;10.70;99.90
54846;DHT22;53889;50.084;8.646;2023-03-14T01:58:04;10.70;99.90
54846;DHT22;53889;50.084;8.646;2023-03-14T02:00:32;10.70;99.90
54846;DHT22;53889;50.084;8.646;2023-03-14T02:03:02;10.70;99.90
54846;DHT22;53889;50.084;8.646;2023-03-14T02:05:35;10.70;99.90
54846;DHT22;53889;50.084;8.646;2023-03-14T02:08:11;10.70;99.90
54846;DHT22;53889;50.084;8.646;2023-03-14T02:10:47;10.70;99.90
54846;DHT22;53889;50.084;8.646;2023-03-14T02:13:18;10.70;99.90
54846;DHT22;53889;50.084;8.646;2023-03-14T02:16:09;10.70;99.90
54846;DHT22;53889;50.084;8.646;2023-03-14T02:18:55;10.70;99.90
54846;DHT22;53889;50.084;8.646;2023-03-14T02:21:49;10.70;99.90
54846;DHT22;53889;50.084;8.646;2023-03-14T02:24:25;10.70;99.90
54846;DHT22;53889;50.084;8.646;2023-03-14T02:27:07;10.70;99.90
54846;DHT22;53889;50.084;8.646;2023-03-14T02:29:41;10.70;99.90
54846;DHT22;53889;50.084;8.646;2023-03-14T02:32:10;10.70;99.90
54846;DHT22;53889;50.084;8.646;2023-03-14T02:34:40;10.70;99.90
54846;DHT22;53889;50.084;8.646;2023-03-14T02:37:09;10.70;99.90
54846;DHT22;53889;50.084;8.646;2023-03-14T02:39:38;10.70;99.90
54846;DHT22;53889;50.084;8.646;2023-03-14T02:42:08;10.70;99.90
54846;DHT22;53889;50.084;8.646;2023-03-14T02:44:34;10.70;99.90
54846;DHT22;53889;50.084;8.646;2023-03-14T02:47:03;10.70;99.90
54846;DHT22;53889;50.084;8.646;2023-03-14T02:49:32;10.70;99.90
54846;DHT22;53889;50.084;8.646;2023-03-14T02:52:00;10.70;99.90
54846;DHT22;53889;50.084;8.646;2023-03-14T02:54:26;10.80;99.90
54846;DHT22;53889;50.084;8.646;2023-03-14T02:56:53;10.80;99.90
54846;DHT22;53889;50.084;8.646;2023-03-14T02:59:21;10.70;99.90
54846;DHT22;53889;50.084;8.646;2023-03-14T03:01:55;10.70;99.90
54846;DHT22;53889;50.084;8.646;2023-03-14T03:04:24;10.80;99.90
54846;DHT22;53889;50.084;8.646;2023-03-14T03:06:51;11.20;99.90
54846;DHT22;53889;50.084;8.646;2023-03-14T03:09:17;10.80;99.90
54846;DHT22;53889;50.084;8.646;2023-03-14T03:11:44;10.80;99.90
54846;DHT22;53889;50.084;8.646;2023-03-14T03:14:17;10.80;99.90
54846;DHT22;53889;50.084;8.646;2023-03-14T03:16:45;10.80;99.90
54846;DHT22;53889;50.084;8.646;2023-03-14T03:19:11;10.80;99.90
54846;DHT22;53889;50.084;8.646;2023-03-14T03:21:39;10.80;99.90
54846;DHT22;53889;50.084;8.646;2023-03-14T03:24:06;10.80;99.90
54846;DHT22;53889;50.084;8.646;2023-03-14T03:26:33;10.80;99.90
54846;DHT22;53889;50.084;8.646;2023-03-14T03:29:03;10.80;99.90
54846;DHT22;53889;50.084;8.646;2023-03-14T03:31:30;10.80;99.90
54846;DHT22;53889;50.084;8.646;2023-03-14T03:33:58;10.80;99.90
54846;DHT22;53889;50.084;8.646;2023-03-14T03:36:26;10.80;99.90
54846;DHT22;53889;50.084;8.646;2023-03-14T03:38:52;10.80;99.90
54846;DHT22;53889;50.084;8.646;2023-03-14T03:41:19;10.70;99.90
54846;DHT22;53889;50.084;8.646;2023-03-14T03:43:47;10.70;99.90
54846;DHT22;53889;50.084;8.646;2023-03-14T03:46:15;10.70;99.90
54846;DHT22;53889;50.084;8.646;2023-03-14T03:48:43;10.70;99.90
54846;DHT22;53889;50.084;8.646;2023-03-14T03:51:14;10.70;99.90
54846;DHT22;53889;50.084;8.646;2023-03-14T03:53:41;10.70;99.90
54846;DHT22;53889;50.084;8.646;2023-03-14T03:56:10;10.70;99.90
54846;DHT22;53889;50.084;8.646;2023-03-14T03:58:38;10.70;99.90
54846;DHT22;53889;50.084;8.646;2023-03-14T04:01:06;10.70;99.90
54846;DHT22;53889;50.084;8.646;2023-03-14T04:03:33;10.70;99.90
54846;DHT22;53889;50.084;8.646;2023-03-14T04:06:01;10.70;99.90
54846;DHT22;53889;50.084;8.646;2023-03-14T04:08:31;10.70;99.90
54846;DHT22;53889;50.084;8.646;2023-03-14T04:11:00;10.70;99.90
54846;DHT22;53889;50.084;8.646;2023-03-14T04:13:51;10.80;99.90
54846;DHT22;53889;50.084;8.646;2023-03-14T04:16:20;10.70;99.90
54846;DHT22;53889;50.084;8.646;2023-03-14T04:18:49;10.80;99.90
54846;DHT22;53889;50.084;8.646;2023-03-14T04:21:19;10.70;99.90
54846;DHT22;53889;50.084;8.646;2023-03-14T04:23:50;10.70;99.90
54846;DHT22;53889;50.084;8.646;2023-03-14T04:26:18;10.70;99.90
54846;DHT22;53889;50.084;8.646;2023-03-14T04:28:45;10.80;99.90
54846;DHT22;53889;50.084;8.646;2023-03-14T04:31:13;10.80;99.90
54846;DHT22;53889;50.084;8.646;2023-03-14T04:33:40;10.90;99.90
54846;DHT22;53889;50.084;8.646;2023-03-14T04:36:08;10.80;99.90
54846;DHT22;53889;50.084;8.646;2023-03-14T04:38:35;10.80;99.90
54846;DHT22;53889;50.084;8.646;2023-03-14T04:41:05;10.80;99.90
54846;DHT22;53889;50.084;8.646;2023-03-14T04:43:32;10.80;99.90
54846;DHT22;53889;50.084;8.646;2023-03-14T04:46:05;10.80;99.90
54846;DHT22;53889;50.084;8.646;2023-03-14T04:48:32;10.80;99.90
54846;DHT22;53889;50.084;8.646;2023-03-14T04:50:59;10.90;99.90
54846;DHT22;53889;50.084;8.646;2023-03-14T04:53:30;10.80;99.90
54846;DHT22;53889;50.084;8.646;2023-03-14T04:55:58;10.90;99.90
54846;DHT22;53889;50.084;8.646;2023-03-14T04:58:33;10.90;99.90
54846;DHT22;53889;50.084;8.646;2023-03-14T05:01:02;10.90;99.90
54846;DHT22;53889;50.084;8.646;2023-03-14T05:03:45;10.90;99.90
54846;DHT22;53889;50.084;8.646;2023-03-14T05:06:17;10.90;99.90
54846;DHT22;53889;50.084;8.646;2023-03-14T05:08:43;10.90;99.90
54846;DHT22;53889;50.084;8.646;2023-03-14T05:11:24;10.90;99.90
54846;DHT22;53889;50.084;8.646;2023-03-14T05:13:52;10.90;99.90
54846;DHT22;53889;50.084;8.646;2023-03-14T05:16:32;10.90;99.90
54846;DHT22;53889;50.084;8.646;2023-03-14T05:19:14;10.90;99.90
54846;DHT22;53889;50.084;8.646;2023-03-14T05:22:19;10.80;99.90
54846;DHT22;53889;50.084;8.646;2023-03-14T05:25:09;10.70;99.90
54846;DHT22;53889;50.084;8.646;2023-03-14T05:27:55;10.80;99.90
54846;DHT22;53889;50.084;8.646;2023-03-14T05:30:39;10.80;99.90
54846;DHT22;53889;50.084;8.646;2023-03-14T05:33:26;10.70;99.90
54846;DHT22;53889;50.084;8.646;2023-03-14T05:36:12;10.80;99.90
54846;DHT22;53889;50.084;8.646;2023-03-14T05:38:57;10.90;99.90
54846;DHT22;53889;50.084;8.646;2023-03-14T05:41:27;10.80;99.90
54846;DHT22;53889;50.084;8.646;2023-03-14T05:44:14;10.80;99.90
54846;DHT22;53889;50.084;8.646;2023-03-14T05:46:56;10.80;99.90
54846;DHT22;53889;50.084;8.646;2023-03-14T05:49:33;10.80;99.90
54846;DHT22;53889;50.084;8.646;2023-03-14T05:52:11;10.80;99.90
54846;DHT22;53889;50.084;8.646;2023-03-14T05:54:56;10.80;99.90
54846;DHT22;53889;50.084;8.646;2023-03-14T05:57:42;10.80;99.90
54846;DHT22;53889;50.084;8.646;2023-03-14T06:00:21;10.80;99.90
54846;DHT22;53889;50.084;8.646;2023-03-14T06:03:04;10.90;99.90
54846;DHT22;53889;50.084;8.646;2023-03-14T06:05:34;10.90;99.90
54846;DHT22;53889;50.084;8.646;2023-03-14T06:08:01;10.80;99.90
54846;DHT22;53889;50.084;8.646;2023-03-14T06:10:30;10.80;99.90
54846;DHT22;53889;50.084;8.646;2023-03-14T06:12:57;10.80;99.90
54846;DHT22;53889;50.084;8.646;2023-03-14T06:15:24;10.70;99.90
54846;DHT22;53889;50.084;8.646;2023-03-14T06:17:53;10.80;99.90
54846;DHT22;53889;50.084;8.646;2023-03-14T06:20:22;10.80;99.90
54846;DHT22;53889;50.084;8.646;2023-03-14T06:22:49;10.90;99.90
54846;DHT22;53889;50.084;8.646;2023-03-14T06:25:15;10.80;99.90
54846;DHT22;53889;50.084;8.646;2023-03-14T06:27:45;10.80;99.90
54846;DHT22;53889;50.084;8.646;2023-03-14T06:30:12;10.80;99.90
54846;DHT22;53889;50.084;8.646;2023-03-14T06:32:39;10.80;99.90
54846;DHT22;53889;50.084;8.646;2023-03-14T06:35:09;10.80;99.90
54846;DHT22;53889;50.084;8.646;2023-03-14T06:37:41;10.80;99.90
54846;DHT22;53889;50.084;8.646;2023-03-14T06:40:09;10.80;99.90
54846;DHT22;53889;50.084;8.646;2023-03-14T06:42:48;10.80;99.90
54846;DHT22;53889;50.084;8.646;2023-03-14T06:45:16;10.80;99.90
54846;DHT22;53889;50.084;8.646;2023-03-14T06:47:43;10.80;99.90
54846;DHT22;53889;50.084;8.646;2023-03-14T06:50:10;10.90;99.90
54846;DHT22;53889;50.084;8.646;2023-03-14T06:52:38;10.90;99.90
54846;DHT22;53889;50.084;8.646;2023-03-14T06:55:08;11.00;99.90
54846;DHT22;53889;50.084;8.646;2023-03-14T06:57:35;10.90;99.90
54846;DHT22;53889;50.084;8.646;2023-03-14T07:00:03;11.00;99.90
54846;DHT22;53889;50.084;8.646;2023-03-14T07:02:31;11.00;99.90
54846;DHT22;53889;50.084;8.646;2023-03-14T07:04:59;11.00;99.90
54846;DHT22;53889;50.084;8.646;2023-03-14T07:07:26;11.00;99.90
54846;DHT22;53889;50.084;8.646;2023-03-14T07:09:53;11.00;99.90
54846;DHT22;53889;50.084;8.646;2023-03-14T07:12:21;11.00;99.90
54846;DHT22;53889;50.084;8.646;2023-03-14T07:14:48;11.00;99.90
54846;DHT22;53889;50.084;8.646;2023-03-14T07:17:15;11.00;99.90
54846;DHT22;53889;50.084;8.646;2023-03-14T07:19:42;11.00;99.90
54846;DHT22;53889;50.084;8.646;2023-03-14T07:22:08;11.10;99.90
54846;DHT22;53889;50.084;8.646;2023-03-14T07:24:35;11.10;99.90
54846;DHT22;53889;50.084;8.646;2023-03-14T07:27:03;11.10;99.90
54846;DHT22;53889;50.084;8.646;2023-03-14T07:29:31;11.20;99.90
54846;DHT22;53889;50.084;8.646;2023-03-14T07:31:59;11.10;99.90
54846;DHT22;53889;50.084;8.646;2023-03-14T07:34:26;11.10;99.90
54846;DHT22;53889;50.084;8.646;2023-03-14T07:36:54;11.10;99.90
54846;DHT22;53889;50.084;8.646;2023-03-14T07:39:21;11.10;99.90
54846;DHT22;53889;50.084;8.646;2023-03-14T07:42:10;11.10;99.90
54846;DHT22;53889;50.084;8.646;2023-03-14T07:44:58;11.10;99.90
54846;DHT22;53889;50.084;8.646;2023-03-14T07:47:25;11.10;99.90
54846;DHT22;53889;50.084;8.646;2023-03-14T07:49:51;11.10;99.90
54846;DHT22;53889;50.084;8.646;2023-03-14T07:52:18;11.10;99.90
54846;DHT22;53889;50.084;8.646;2023-03-14T07:54:45;11.10;99.90
54846;DHT22;53889;50.084;8.646;2023-03-14T07:57:11;11.10;99.90
54846;DHT22;53889;50.084;8.646;2023-03-14T07:59:38;11.10;99.90
54846;DHT22;53889;50.084;8.646;2023-03-14T08:02:08;11.10;99.90
54846;DHT22;53889;50.084;8.646;2023-03-14T08:04:37;11.10;99.90
54846;DHT22;53889;50.084;8.646;2023-03-14T08:07:04;11.20;99.90
54846;DHT22;53889;50.084;8.646;2023-03-14T08:09:30;11.30;99.90
54846;DHT22;53889;50.084;8.646;2023-03-14T08:11:57;11.30;99.90
54846;DHT22;53889;50.084;8.646;2023-03-14T08:14:24;11.30;99.90
54846;DHT22;53889;50.084;8.646;2023-03-14T08:16:51;11.30;99.90
54846;DHT22;53889;50.084;8.646;2023-03-14T08:19:19;11.30;99.90
54846;DHT22;53889;50.084;8.646;2023-03-14T08:21:46;11.30;99.90
54846;DHT22;53889;50.084;8.646;2023-03-14T08:24:12;11.20;99.90
54846;DHT22;53889;50.084;8.646;2023-03-14T08:26:39;11.20;99.90
54846;DHT22;53889;50.084;8.646;2023-03-14T08:29:06;11.30;99.90
54846;DHT22;53889;50.084;8.646;2023-03-14T08:31:34;11.40;99.90
54846;DHT22;53889;50.084;8.646;2023-03-14T08:34:01;11.50;99.90
54846;DHT22;53889;50.084;8.646;2023-03-14T08:36:30;11.60;99.90
54846;DHT22;53889;50.084;8.646;2023-03-14T08:38:57;11.60;99.90
54846;DHT22;53889;50.084;8.646;2023-03-14T08:41:23;11.60;99.90
54846;DHT22;53889;50.084;8.646;2023-03-14T08:43:50;11.60;99.90
54846;DHT22;53889;50.084;8.646;2023-03-14T08:46:17;11.50;99.90
54846;DHT22;53889;50.084;8.646;2023-03-14T08:48:43;11.50;99.90
54846;DHT22;53889;50.084;8.646;2023-03-14T08:51:12;11.60;99.90
54846;DHT22;53889;50.084;8.646;2023-03-14T08:53:41;11.60;99.90
54846;DHT22;53889;50.084;8.646;2023-03-14T08:56:08;11.50;99.90
54846;DHT22;53889;50.084;8.646;2023-03-14T08:58:35;11.70;99.90
54846;DHT22;53889;50.084;8.646;2023-03-14T09:01:03;11.70;99.90
54846;DHT22;53889;50.084;8.646;2023-03-14T09:03:30;11.90;99.90
54846;DHT22;53889;50.084;8.646;2023-03-14T09:06:01;12.30;99.90
54846;DHT22;53889;50.084;8.646;2023-03-14T09:08:29;12.40;99.90
54846;DHT22;53889;50.084;8.646;2023-03-14T09:10:57;12.40;99.90
54846;DHT22;53889;50.084;8.646;2023-03-14T09:13:24;12.80;99.90
54846;DHT22;53889;50.084;8.646;2023-03-14T09:15:51;13.40;99.90
54846;DHT22;53889;50.084;8.646;2023-03-14T09:18:18;13.50;99.90
54846;DHT22;53889;50.084;8.646;2023-03-14T09:20:44;13.30;99.90
54846;DHT22;53889;50.084;8.646;2023-03-14T09:23:11;13.30;99.90
54846;DHT22;53889;50.084;8.646;2023-03-14T09:25:38;13.10;99.90
54846;DHT22;53889;50.084;8.646;2023-03-14T09:28:05;13.10;99.90
54846;DHT22;53889;50.084;8.646;2023-03-14T09:30:32;13.40;99.90
54846;DHT22;53889;50.084;8.646;2023-03-14T09:32:59;13.40;99.90
54846;DHT22;53889;50.084;8.646;2023-03-14T09:35:26;13.20;99.90
54846;DHT22;53889;50.084;8.646;2023-03-14T09:37:56;13.00;99.90
54846;DHT22;53889;50.084;8.646;2023-03-14T09:40:23;12.80;99.90
54846;DHT22;53889;50.084;8.646;2023-03-14T09:42:51;12.70;99.90
54846;DHT22;53889;50.084;8.646;2023-03-14T09:45:25;12.70;99.90
54846;DHT22;53889;50.084;8.646;2023-03-14T09:47:52;12.50;99.90
54846;DHT22;53889;50.084;8.646;2023-03-14T09:50:20;12.30;99.90
54846;DHT22;53889;50.084;8.646;2023-03-14T09:52:49;12.20;99.90
54846;DHT22;53889;50.084;8.646;2023-03-14T09:55:18;12.20;99.90
54846;DHT22;53889;50.084;8.646;2023-03-14T09:57:47;12.10;99.90
54846;DHT22;53889;50.084;8.646;2023-03-14T10:00:16;12.00;99.90
54846;DHT22;53889;50.084;8.646;2023-03-14T10:02:51;12.00;99.90
54846;DHT22;53889;50.084;8.646;2023-03-14T10:05:20;12.00;99.90
54846;DHT22;53889;50.084;8.646;2023-03-14T10:07:47;11.90;99.90
54846;DHT22;53889;50.084;8.646;2023-03-14T10:10:17;11.90;99.90
54846;DHT22;53889;50.084;8.646;2023-03-14T10:12:46;11.90;99.90
54846;DHT22;53889;50.084;8.646;2023-03-14T10:15:14;11.90;99.90
54846;DHT22;53889;50.084;8.646;2023-03-14T10:17:48;11.90;99.90
54846;DHT22;53889;50.084;8.646;2023-03-14T10:20:31;12.20;99.90
54846;DHT22;53889;50.084;8.646;2023-03-14T10:22:59;12.10;99.90
54846;DHT22;53889;50.084;8.646;2023-03-14T10:25:28;12.10;99.90
54846;DHT22;53889;50.084;8.646;2023-03-14T10:27:55;12.20;99.90
54846;DHT22;53889;50.084;8.646;2023-03-14T10:30:34;12.20;99.90
54846;DHT22;53889;50.084;8.646;2023-03-14T10:33:12;12.20;99.90
54846;DHT22;53889;50.084;8.646;2023-03-14T10:35:46;12.30;99.90
54846;DHT22;53889;50.084;8.646;2023-03-14T10:38:18;12.30;99.90
54846;DHT22;53889;50.084;8.646;2023-03-14T10:40:47;12.20;99.90
54846;DHT22;53889;50.084;8.646;2023-03-14T10:43:17;12.10;99.90
54846;DHT22;53889;50.084;8.646;2023-03-14T10:45:52;12.00;99.90
54846;DHT22;53889;50.084;8.646;2023-03-14T10:48:29;12.10;99.90
54846;DHT22;53889;50.084;8.646;2023-03-14T10:50:59;12.10;99.90
54846;DHT22;53889;50.084;8.646;2023-03-14T10:53:34;12.00;99.90
54846;DHT22;53889;50.084;8.646;2023-03-14T10:56:05;11.90;99.90
54846;DHT22;53889;50.084;8.646;2023-03-14T10:58:35;11.70;99.90
54846;DHT22;53889;50.084;8.646;2023-03-14T11:01:14;11.70;99.90
54846;DHT22;53889;50.084;8.646;2023-03-14T11:03:51;11.60;99.90
54846;DHT22;53889;50.084;8.646;2023-03-14T11:06:22;11.50;99.90
54846;DHT22;53889;50.084;8.646;2023-03-14T11:08:54;11.50;99.90
54846;DHT22;53889;50.084;8.646;2023-03-14T11:11:24;11.50;99.90
54846;DHT22;53889;50.084;8.646;2023-03-14T11:14:01;11.50;99.90
54846;DHT22;53889;50.084;8.646;2023-03-14T11:16:34;11.40;99.90
54846;DHT22;53889;50.084;8.646;2023-03-14T11:19:20;11.40;99.90
54846;DHT22;53889;50.084;8.646;2023-03-14T11:21:54;11.40;99.90
54846;DHT22;53889;50.084;8.646;2023-03-14T11:24:33;11.40;99.90
54846;DHT22;53889;50.084;8.646;2023-03-14T11:27:07;11.40;99.90
54846;DHT22;53889;50.084;8.646;2023-03-14T11:29:39;11.40;99.90
54846;DHT22;53889;50.084;8.646;2023-03-14T11:32:13;11.40;99.90
54846;DHT22;53889;50.084;8.646;2023-03-14T11:34:47;11.40;99.90
54846;DHT22;53889;50.084;8.646;2023-03-14T11:37:21;11.40;99.90
54846;DHT22;53889;50.084;8.646;2023-03-14T11:39:56;11.40;99.90
54846;DHT22;53889;50.084;8.646;2023-03-14T11:42:27;11.80;99.90
54846;DHT22;53889;50.084;8.646;2023-03-14T11:44:55;11.40;99.90
54846;DHT22;53889;50.084;8.646;2023-03-14T11:47:26;11.50;99.90
54846;DHT22;53889;50.084;8.646;2023-03-14T11:50:00;11.50;99.90
54846;DHT22;53889;50.084;8.646;2023-03-14T11:52:32;11.60;99.90
54846;DHT22;53889;50.084;8.646;2023-03-14T11:55:04;11.60;99.90
54846;DHT22;53889;50.084;8.646;2023-03-14T11:57:32;11.60;99.90
54846;DHT22;53889;50.084;8.646;2023-03-14T12:00:04;11.60;99.90
54846;DHT22;53889;50.084;8.646;2023-03-14T12:02:45;11.70;99.90
54846;DHT22;53889;50.084;8.646;2023-03-14T12:05:42;11.70;99.90
54846;DHT22;53889;50.084;8.646;2023-03-14T12:08:39;11.70;99.90
54846;DHT22;53889;50.084;8.646;2023-03-14T12:11:12;11.70;99.90
54846;DHT22;53889;50.084;8.646;2023-03-14T12:13:40;11.40;99.90
54846;DHT22;53889;50.084;8.646;2023-03-14T12:16:27;10.40;99.90
54846;DHT22;53889;50.084;8.646;2023-03-14T12:18:56;9.70;99.90
54846;DHT22;53889;50.084;8.646;2023-03-14T12:21:44;9.50;99.90
54846;DHT22;53889;50.084;8.646;2023-03-14T12:24:18;9.40;99.90
54846;DHT22;53889;50.084;8.646;2023-03-14T12:26:52;9.40;99.90
54846;DHT22;53889;50.084;8.646;2023-03-14T12:29:20;9.40;99.90
54846;DHT22;53889;50.084;8.646;2023-03-14T12:31:48;9.40;99.90
54846;DHT22;53889;50.084;8.646;2023-03-14T12:34:31;9.50;99.90
54846;DHT22;53889;50.084;8.646;2023-03-14T12:37:05;9.60;99.90
54846;DHT22;53889;50.084;8.646;2023-03-14T12:39:50;9.70;99.90
54846;DHT22;53889;50.084;8.646;2023-03-14T12:42:35;9.80;99.90
54846;DHT22;53889;50.084;8.646;2023-03-14T12:45:15;9.90;99.90
54846;DHT22;53889;50.084;8.646;2023-03-14T12:47:57;10.00;99.90
54846;DHT22;53889;50.084;8.646;2023-03-14T12:50:33;10.50;99.90
54846;DHT22;53889;50.084;8.646;2023-03-14T12:56:09;10.70;99.90
54846;DHT22;53889;50.084;8.646;2023-03-14T12:58:41;10.50;99.90
54846;DHT22;53889;50.084;8.646;2023-03-14T13:01:18;10.60;99.90
54846;DHT22;53889;50.084;8.646;2023-03-14T13:03:47;10.50;99.90
54846;DHT22;53889;50.084;8.646;2023-03-14T13:06:50;10.40;99.90
54846;DHT22;53889;50.084;8.646;2023-03-14T13:09:50;10.40;99.90
54846;DHT22;53889;50.084;8.646;2023-03-14T13:12:25;10.40;99.90
54846;DHT22;53889;50.084;8.646;2023-03-14T13:14:59;10.40;99.90
54846;DHT22;53889;50.084;8.646;2023-03-14T13:17:29;10.40;99.90
54846;DHT22;53889;50.084;8.646;2023-03-14T13:19:58;10.50;99.90
54846;DHT22;53889;50.084;8.646;2023-03-14T13:22:28;10.60;99.90
54846;DHT22;53889;50.084;8.646;2023-03-14T13:25:00;10.60;99.90
54846;DHT22;53889;50.084;8.646;2023-03-14T13:27:30;10.70;99.90
54846;DHT22;53889;50.084;8.646;2023-03-14T13:29:58;10.80;99.90
54846;DHT22;53889;50.084;8.646;2023-03-14T13:32:27;10.90;99.90
54846;DHT22;53889;50.084;8.646;2023-03-14T13:34:55;11.00;99.90
54846;DHT22;53889;50.084;8.646;2023-03-14T13:37:24;11.20;99.90
54846;DHT22;53889;50.084;8.646;2023-03-14T13:39:53;11.20;99.90
54846;DHT22;53889;50.084;8.646;2023-03-14T13:42:25;11.40;99.90
54846;DHT22;53889;50.084;8.646;2023-03-14T13:44:54;11.60;99.90
54846;DHT22;53889;50.084;8.646;2023-03-14T13:47:24;11.80;99.90
54846;DHT22;53889;50.084;8.646;2023-03-14T13:49:52;11.90;99.90
54846;DHT22;53889;50.084;8.646;2023-03-14T13:52:24;11.70;99.90
54846;DHT22;53889;50.084;8.646;2023-03-14T13:54:53;11.60;99.90
54846;DHT22;53889;50.084;8.646;2023-03-14T13:57:20;11.30;99.90
54846;DHT22;53889;50.084;8.646;2023-03-14T14:00:00;11.00;99.90
54846;DHT22;53889;50.084;8.646;2023-03-14T14:02:32;10.60;99.90
54846;DHT22;53889;50.084;8.646;2023-03-14T14:04:59;10.30;99.90
54846;DHT22;53889;50.084;8.646;2023-03-14T14:07:26;9.90;99.90
54846;DHT22;53889;50.084;8.646;2023-03-14T14:09:53;9.80;99.90
54846;DHT22;53889;50.084;8.646;2023-03-14T14:12:24;9.80;99.90
54846;DHT22;53889;50.084;8.646;2023-03-14T14:14:56;9.70;99.90
54846;DHT22;53889;50.084;8.646;2023-03-14T14:17:28;9.50;99.90
54846;DHT22;53889;50.084;8.646;2023-03-14T14:19:56;9.40;99.90
54846;DHT22;53889;50.084;8.646;2023-03-14T14:22:24;9.50;99.90
54846;DHT22;53889;50.084;8.646;2023-03-14T14:24:51;9.50;99.90
54846;DHT22;53889;50.084;8.646;2023-03-14T14:27:24;9.40;99.90
54846;DHT22;53889;50.084;8.646;2023-03-14T14:29:59;9.50;99.90
54846;DHT22;53889;50.084;8.646;2023-03-14T14:32:35;9.60;99.90
54846;DHT22;53889;50.084;8.646;2023-03-14T14:35:02;9.60;99.90
54846;DHT22;53889;50.084;8.646;2023-03-14T14:37:31;9.40;99.90
54846;DHT22;53889;50.084;8.646;2023-03-14T14:40:05;9.40;99.90
54846;DHT22;53889;50.084;8.646;2023-03-14T14:42:33;9.20;99.90
54846;DHT22;53889;50.084;8.646;2023-03-14T14:45:02;9.10;99.90
54846;DHT22;53889;50.084;8.646;2023-03-14T14:47:30;9.00;99.90
54846;DHT22;53889;50.084;8.646;2023-03-14T14:50:00;9.10;99.90
54846;DHT22;53889;50.084;8.646;2023-03-14T14:52:34;9.00;99.90
54846;DHT22;53889;50.084;8.646;2023-03-14T14:55:02;9.00;99.90
54846;DHT22;53889;50.084;8.646;2023-03-14T14:57:32;8.90;99.90
54846;DHT22;53889;50.084;8.646;2023-03-14T15:00:04;8.80;99.90
54846;DHT22;53889;50.084;8.646;2023-03-14T15:02:38;8.60;99.90
54846;DHT22;53889;50.084;8.646;2023-03-14T15:05:12;8.30;99.90
54846;DHT22;53889;50.084;8.646;2023-03-14T15:07:39;8.10;99.90
54846;DHT22;53889;50.084;8.646;2023-03-14T15:10:09;8.00;99.90
54846;DHT22;53889;50.084;8.646;2023-03-14T15:12:35;8.00;99.90
54846;DHT22;53889;50.084;8.646;2023-03-14T15:15:02;8.00;99.90
54846;DHT22;53889;50.084;8.646;2023-03-14T15:17:30;8.00;99.90
54846;DHT22;53889;50.084;8.646;2023-03-14T15:19:58;8.10;99.90
54846;DHT22;53889;50.084;8.646;2023-03-14T15:22:25;7.90;99.90
54846;DHT22;53889;50.084;8.646;2023-03-14T15:24:52;8.00;99.90
54846;DHT22;53889;50.084;8.646;2023-03-14T15:27:18;7.90;99.90
54846;DHT22;53889;50.084;8.646;2023-03-14T15:29:45;7.80;99.90
54846;DHT22;53889;50.084;8.646;2023-03-14T15:32:13;7.70;99.90
54846;DHT22;53889;50.084;8.646;2023-03-14T15:34:41;7.70;99.90
54846;DHT22;53889;50.084;8.646;2023-03-14T15:37:11;7.80;99.90
54846;DHT22;53889;50.084;8.646;2023-03-14T15:42:13;7.90;99.90
54846;DHT22;53889;50.084;8.646;2023-03-14T15:44:39;8.10;99.90
54846;DHT22;53889;50.084;8.646;2023-03-14T15:47:08;8.20;99.90
54846;DHT22;53889;50.084;8.646;2023-03-14T15:49:34;8.20;99.90
54846;DHT22;53889;50.084;8.646;2023-03-14T15:52:02;8.20;99.90
54846;DHT22;53889;50.084;8.646;2023-03-14T15:54:30;8.20;99.90
54846;DHT22;53889;50.084;8.646;2023-03-14T15:56:57;8.20;99.90
54846;DHT22;53889;50.084;8.646;2023-03-14T15:59:24;8.20;99.90
54846;DHT22;53889;50.084;8.646;2023-03-14T16:01:51;8.10;99.90
54846;DHT22;53889;50.084;8.646;2023-03-14T16:04:18;8.10;99.90